sensor_id;sensor_type;location;lat;lon;timestamp;pressure;altitude;pressure_sealevel;temperature;humidity
64544;BME280;50936;51.660;5.616;2023-01-28T00:01:55;102536.56;;;2.81;100.00
64544;BME280;50936;51.660;5.616;2023-01-28T00:04:22;102541.88;;;2.82;100.00
64544;BME280;50936;51.660;5.616;2023-01-28T00:06:49;102541.91;;;2.81;100.00
64544;BME280;50936;51.660;5.616;2023-01-28T00:09:16;102540.97;;;2.82;100.00
64544;BME280;50936;51.660;5.616;2023-01-28T00:11:43;102542.75;;;2.83;100.00
64544;BME280;50936;51.660;5.616;2023-01-28T00:14:11;102551.66;;;2.82;100.00
64544;BME280;50936;51.660;5.616;2023-01-28T00:16:38;102554.31;;;2.83;100.00
64544;BME280;50936;51.660;5.616;2023-01-28T00:19:05;102556.13;;;2.81;100.00
64544;BME280;50936;51.660;5.616;2023-01-28T00:21:33;102553.44;;;2.80;100.00
64544;BME280;50936;51.660;5.616;2023-01-28T00:24:00;102562.38;;;2.79;100.00
64544;BME280;50936;51.660;5.616;2023-01-28T00:26:27;102551.69;;;2.79;100.00
64544;BME280;50936;51.660;5.616;2023-01-28T00:28:54;102555.25;;;2.81;100.00
64544;BME280;50936;51.660;5.616;2023-01-28T00:31:25;102555.25;;;2.81;100.00
64544;BME280;50936;51.660;5.616;2023-01-28T00:33:54;102559.69;;;2.80;100.00
64544;BME280;50936;51.660;5.616;2023-01-28T00:36:24;102562.38;;;2.79;100.00
64544;BME280;50936;51.660;5.616;2023-01-28T00:38:54;102559.66;;;2.82;100.00
64544;BME280;50936;51.660;5.616;2023-01-28T00:41:25;102558.75;;;2.86;100.00
64544;BME280;50936;51.660;5.616;2023-01-28T00:43:57;102567.56;;;2.91;100.00
64544;BME280;50936;51.660;5.616;2023-01-28T00:46:24;102571.13;;;2.93;100.00
64544;BME280;50936;51.660;5.616;2023-01-28T00:48:55;102563.13;;;2.92;100.00
64544;BME280;50936;51.660;5.616;2023-01-28T00:51:22;102565.81;;;2.90;100.00
64544;BME280;50936;51.660;5.616;2023-01-28T00:53:49;102573.84;;;2.88;100.00
64544;BME280;50936;51.660;5.616;2023-01-28T00:56:17;102571.25;;;2.78;100.00
64544;BME280;50936;51.660;5.616;2023-01-28T00:58:45;102568.63;;;2.75;100.00
64544;BME280;50936;51.660;5.616;2023-01-28T01:01:16;102573.16;;;2.68;100.00
64544;BME280;50936;51.660;5.616;2023-01-28T01:03:46;102580.28;;;2.67;100.00
64544;BME280;50936;51.660;5.616;2023-01-28T01:06:14;102579.38;;;2.67;100.00
64544;BME280;50936;51.660;5.616;2023-01-28T01:08:41;102568.69;;;2.70;100.00
64544;BME280;50936;51.660;5.616;2023-01-28T01:11:17;102565.09;;;2.71;100.00
64544;BME280;50936;51.660;5.616;2023-01-28T01:13:49;102569.53;;;2.74;100.00
64544;BME280;50936;51.660;5.616;2023-01-28T01:16:17;102564.19;;;2.74;100.00
64544;BME280;50936;51.660;5.616;2023-01-28T01:18:47;102565.94;;;2.75;100.00
64544;BME280;50936;51.660;5.616;2023-01-28T01:21:16;102571.28;;;2.75;100.00
64544;BME280;50936;51.660;5.616;2023-01-28T01:23:45;102569.50;;;2.77;100.00
64544;BME280;50936;51.660;5.616;2023-01-28T01:26:13;102560.59;;;2.75;100.00
64544;BME280;50936;51.660;5.616;2023-01-28T01:28:40;102560.59;;;2.75;100.00
64544;BME280;50936;51.660;5.616;2023-01-28T01:31:16;102557.06;;;2.76;100.00
64544;BME280;50936;51.660;5.616;2023-01-28T01:33:47;102553.44;;;2.80;100.00
64544;BME280;50936;51.660;5.616;2023-01-28T01:36:16;102559.66;;;2.82;100.00
64544;BME280;50936;51.660;5.616;2023-01-28T01:38:47;102565.91;;;2.82;100.00
64544;BME280;50936;51.660;5.616;2023-01-28T01:41:34;102564.09;;;2.83;100.00
64544;BME280;50936;51.660;5.616;2023-01-28T01:44:04;102577.44;;;2.83;100.00
64544;BME280;50936;51.660;5.616;2023-01-28T01:46:45;102573.91;;;2.82;100.00
64544;BME280;50936;51.660;5.616;2023-01-28T01:49:24;102569.47;;;2.80;100.00
64544;BME280;50936;51.660;5.616;2023-01-28T01:51:56;102565.03;;;2.79;100.00
64544;BME280;50936;51.660;5.616;2023-01-28T01:54:30;102573.06;;;2.79;100.00
64544;BME280;50936;51.660;5.616;2023-01-28T01:56:59;102565.03;;;2.79;100.00
64544;BME280;50936;51.660;5.616;2023-01-28T01:59:31;102567.75;;;2.73;100.00
64544;BME280;50936;51.660;5.616;2023-01-28T02:02:03;102573.09;;;2.73;100.00
64544;BME280;50936;51.660;5.616;2023-01-28T02:04:41;102566.84;;;2.77;100.00
64544;BME280;50936;51.660;5.616;2023-01-28T02:07:15;102575.72;;;2.77;100.00
64544;BME280;50936;51.660;5.616;2023-01-28T02:09:45;102572.19;;;2.75;100.00
64544;BME280;50936;51.660;5.616;2023-01-28T02:12:20;102574.88;;;2.74;100.00
64544;BME280;50936;51.660;5.616;2023-01-28T02:14:56;102574.88;;;2.70;100.00
64544;BME280;50936;51.660;5.616;2023-01-28T02:17:28;102576.69;;;2.65;100.00
64544;BME280;50936;51.660;5.616;2023-01-28T02:20:07;102575.84;;;2.62;100.00
64544;BME280;50936;51.660;5.616;2023-01-28T02:28:58;102577.66;;;2.60;100.00
64544;BME280;50936;51.660;5.616;2023-01-28T02:31:38;102580.31;;;2.61;100.00
64544;BME280;50936;51.660;5.616;2023-01-28T02:40:00;102568.75;;;2.59;100.00
64544;BME280;50936;51.660;5.616;2023-01-28T02:42:36;102575.88;;;2.60;100.00
64544;BME280;50936;51.660;5.616;2023-01-28T02:47:44;102573.16;;;2.63;100.00
64544;BME280;50936;51.660;5.616;2023-01-28T02:51:09;102581.16;;;2.63;100.00
64544;BME280;50936;51.660;5.616;2023-01-28T02:54:17;102572.28;;;2.64;100.00
64544;BME280;50936;51.660;5.616;2023-01-28T03:03:14;102575.91;;;2.57;100.00
64544;BME280;50936;51.660;5.616;2023-01-28T03:05:52;102582.09;;;2.59;100.00
64544;BME280;50936;51.660;5.616;2023-01-28T03:08:45;102582.09;;;2.62;100.00
64544;BME280;50936;51.660;5.616;2023-01-28T03:11:41;102576.75;;;2.62;100.00
64544;BME280;50936;51.660;5.616;2023-01-28T03:14:32;102584.78;;;2.59;100.00
64544;BME280;50936;51.660;5.616;2023-01-28T03:17:26;102588.31;;;2.58;100.00
64544;BME280;50936;51.660;5.616;2023-01-28T03:20:20;102588.38;;;2.52;100.00
64544;BME280;50936;51.660;5.616;2023-01-28T03:23:11;102585.72;;;2.49;100.00
64544;BME280;50936;51.660;5.616;2023-01-28T03:26:06;102574.19;;;2.48;100.00
64544;BME280;50936;51.660;5.616;2023-01-28T03:29:03;102585.78;;;2.46;100.00
64544;BME280;50936;51.660;5.616;2023-01-28T03:31:55;102580.47;;;2.43;100.00
64544;BME280;50936;51.660;5.616;2023-01-28T03:34:45;102584.06;;;2.39;100.00
64544;BME280;50936;51.660;5.616;2023-01-28T03:37:32;102578.72;;;2.36;100.00
64544;BME280;50936;51.660;5.616;2023-01-28T03:40:11;102584.06;;;2.33;100.00
64544;BME280;50936;51.660;5.616;2023-01-28T03:42:42;102572.56;;;2.29;100.00
64544;BME280;50936;51.660;5.616;2023-01-28T03:45:27;102578.78;;;2.29;100.00
64544;BME280;50936;51.660;5.616;2023-01-28T03:47:55;102572.59;;;2.26;100.00
64544;BME280;50936;51.660;5.616;2023-01-28T03:50:22;102572.59;;;2.23;100.00
64544;BME280;50936;51.660;5.616;2023-01-28T03:52:54;102571.72;;;2.25;100.00
64544;BME280;50936;51.660;5.616;2023-01-28T03:55:47;102574.41;;;2.22;100.00
64544;BME280;50936;51.660;5.616;2023-01-28T03:58:17;102583.25;;;2.24;100.00
64544;BME280;50936;51.660;5.616;2023-01-28T04:00:45;102584.13;;;2.23;100.00
64544;BME280;50936;51.660;5.616;2023-01-28T04:03:16;102591.25;;;2.24;100.00
64544;BME280;50936;51.660;5.616;2023-01-28T04:06:00;102596.59;;;2.21;100.00
64544;BME280;50936;51.660;5.616;2023-01-28T04:08:47;102603.72;;;2.19;100.00
64544;BME280;50936;51.660;5.616;2023-01-28T04:11:36;102603.72;;;2.19;100.00
64544;BME280;50936;51.660;5.616;2023-01-28T04:14:05;102607.25;;;2.21;100.00
64544;BME280;50936;51.660;5.616;2023-01-28T04:16:55;102600.19;;;2.17;100.00
64544;BME280;50936;51.660;5.616;2023-01-28T04:19:24;102602.84;;;2.19;100.00
64544;BME280;50936;51.660;5.616;2023-01-28T04:21:53;102600.19;;;2.14;100.00
64544;BME280;50936;51.660;5.616;2023-01-28T04:24:22;102606.44;;;2.13;100.00
64544;BME280;50936;51.660;5.616;2023-01-28T04:26:50;102602.91;;;2.11;100.00
64544;BME280;50936;51.660;5.616;2023-01-28T04:29:17;102593.13;;;2.10;100.00
64544;BME280;50936;51.660;5.616;2023-01-28T04:31:44;102600.25;;;2.11;100.00
64544;BME280;50936;51.660;5.616;2023-01-28T04:34:30;102598.44;;;2.13;100.00
64544;BME280;50936;51.660;5.616;2023-01-28T04:37:16;102597.53;;;2.16;100.00
64544;BME280;50936;51.660;5.616;2023-01-28T04:40:01;102591.31;;;2.15;100.00
64544;BME280;50936;51.660;5.616;2023-01-28T04:42:53;102591.31;;;2.15;100.00
64544;BME280;50936;51.660;5.616;2023-01-28T04:45:50;102596.59;;;2.20;100.00
64544;BME280;50936;51.660;5.616;2023-01-28T04:48:40;102594.84;;;2.20;100.00
64544;BME280;50936;51.660;5.616;2023-01-28T04:51:42;102597.53;;;2.17;100.00
64544;BME280;50936;51.660;5.616;2023-01-28T04:54:24;102610.88;;;2.14;100.00
64544;BME280;50936;51.660;5.616;2023-01-28T04:56:55;102610.00;;;2.10;100.00
64544;BME280;50936;51.660;5.616;2023-01-28T04:59:22;102614.44;;;2.10;100.00
64544;BME280;50936;51.660;5.616;2023-01-28T05:01:50;102612.66;;;2.12;100.00
64544;BME280;50936;51.660;5.616;2023-01-28T05:04:18;102610.91;;;2.11;100.00
64544;BME280;50936;51.660;5.616;2023-01-28T05:06:45;102607.31;;;2.12;100.00
64544;BME280;50936;51.660;5.616;2023-01-28T05:09:20;102612.66;;;2.12;100.00
64544;BME280;50936;51.660;5.616;2023-01-28T05:11:49;102618.00;;;2.12;100.00
64544;BME280;50936;51.660;5.616;2023-01-28T05:14:16;102616.19;;;2.14;100.00
64544;BME280;50936;51.660;5.616;2023-01-28T05:16:50;102622.41;;;2.18;100.00
64544;BME280;50936;51.660;5.616;2023-01-28T05:19:18;102630.38;;;2.19;100.00
64544;BME280;50936;51.660;5.616;2023-01-28T05:21:46;102622.38;;;2.19;100.00
64544;BME280;50936;51.660;5.616;2023-01-28T05:24:29;102615.31;;;2.15;100.00
64544;BME280;50936;51.660;5.616;2023-01-28T05:26:56;102610.91;;;2.11;100.00
64544;BME280;50936;51.660;5.616;2023-01-28T05:29:23;102618.00;;;2.12;100.00
64544;BME280;50936;51.660;5.616;2023-01-28T05:31:50;102611.78;;;2.13;100.00
64544;BME280;50936;51.660;5.616;2023-01-28T05:34:18;102608.22;;;2.13;100.00
64544;BME280;50936;51.660;5.616;2023-01-28T05:36:44;102598.44;;;2.15;100.00
64544;BME280;50936;51.660;5.616;2023-01-28T05:39:28;102596.66;;;2.15;100.00
64544;BME280;50936;51.660;5.616;2023-01-28T05:41:55;102600.19;;;2.14;100.00
64544;BME280;50936;51.660;5.616;2023-01-28T05:44:23;102593.13;;;2.13;100.00
64544;BME280;50936;51.660;5.616;2023-01-28T05:47:02;102594.91;;;2.08;100.00
64544;BME280;50936;51.660;5.616;2023-01-28T05:49:47;102605.59;;;2.08;100.00
64544;BME280;50936;51.660;5.616;2023-01-28T05:52:33;102609.13;;;2.07;100.00
64544;BME280;50936;51.660;5.616;2023-01-28T05:55:01;102605.59;;;2.08;100.00
64544;BME280;50936;51.660;5.616;2023-01-28T05:57:28;102610.03;;;2.09;100.00
64544;BME280;50936;51.660;5.616;2023-01-28T05:59:55;102614.44;;;2.10;100.00
64544;BME280;50936;51.660;5.616;2023-01-28T06:02:22;102609.13;;;2.10;100.00
64544;BME280;50936;51.660;5.616;2023-01-28T06:04:52;102610.91;;;2.11;100.00
64544;BME280;50936;51.660;5.616;2023-01-28T06:07:20;102613.56;;;2.13;100.00
64544;BME280;50936;51.660;5.616;2023-01-28T06:09:47;102623.31;;;2.12;100.00
64544;BME280;50936;51.660;5.616;2023-01-28T06:12:18;102618.91;;;2.11;100.00
64544;BME280;50936;51.660;5.616;2023-01-28T06:15:01;102624.22;;;2.09;100.00
64544;BME280;50936;51.660;5.616;2023-01-28T06:17:56;102619.78;;;2.08;100.00
64544;BME280;50936;51.660;5.616;2023-01-28T06:20:29;102621.56;;;2.08;100.00
64544;BME280;50936;51.660;5.616;2023-01-28T06:22:57;102623.38;;;2.06;100.00
64544;BME280;50936;51.660;5.616;2023-01-28T06:25:23;102616.28;;;2.02;100.00
64544;BME280;50936;51.660;5.616;2023-01-28T06:27:51;102621.63;;;1.97;100.00
64544;BME280;50936;51.660;5.616;2023-01-28T06:30:18;102622.50;;;1.99;100.00
64544;BME280;50936;51.660;5.616;2023-01-28T06:32:45;102625.16;;;1.98;100.00
64544;BME280;50936;51.660;5.616;2023-01-28T06:35:12;102627.00;;;1.91;100.00
64544;BME280;50936;51.660;5.616;2023-01-28T06:37:39;102619.88;;;1.91;100.00
64544;BME280;50936;51.660;5.616;2023-01-28T06:40:08;102620.81;;;1.86;100.00
64544;BME280;50936;51.660;5.616;2023-01-28T06:42:35;102641.25;;;1.82;100.00
64544;BME280;50936;51.660;5.616;2023-01-28T06:45:03;102628.78;;;1.84;100.00
64544;BME280;50936;51.660;5.616;2023-01-28T06:47:30;102619.94;;;1.84;100.00
64544;BME280;50936;51.660;5.616;2023-01-28T06:49:57;102623.47;;;1.84;100.00
64544;BME280;50936;51.660;5.616;2023-01-28T06:52:24;102623.47;;;1.84;100.00
64544;BME280;50936;51.660;5.616;2023-01-28T06:54:51;102632.38;;;1.77;100.00
64544;BME280;50936;51.660;5.616;2023-01-28T06:57:18;102640.41;;;1.72;100.00
64544;BME280;50936;51.660;5.616;2023-01-28T06:59:44;102629.75;;;1.71;100.00
64544;BME280;50936;51.660;5.616;2023-01-28T07:02:11;102637.75;;;1.71;100.00
64544;BME280;50936;51.660;5.616;2023-01-28T07:04:38;102636.88;;;1.67;100.00
64544;BME280;50936;51.660;5.616;2023-01-28T07:07:05;102646.59;;;1.70;100.00
64544;BME280;50936;51.660;5.616;2023-01-28T07:09:32;102639.50;;;1.72;100.00
64544;BME280;50936;51.660;5.616;2023-01-28T07:11:59;102645.69;;;1.76;100.00
64544;BME280;50936;51.660;5.616;2023-01-28T07:14:26;102647.47;;;1.73;100.00
64544;BME280;50936;51.660;5.616;2023-01-28T07:16:52;102646.59;;;1.70;100.00
64544;BME280;50936;51.660;5.616;2023-01-28T07:19:19;102653.72;;;1.71;100.00
64544;BME280;50936;51.660;5.616;2023-01-28T07:21:46;102666.13;;;1.72;100.00
64544;BME280;50936;51.660;5.616;2023-01-28T07:24:13;102666.13;;;1.72;100.00
64544;BME280;50936;51.660;5.616;2023-01-28T07:26:40;102667.91;;;1.70;100.00
64544;BME280;50936;51.660;5.616;2023-01-28T07:29:08;102675.03;;;1.68;100.00
64544;BME280;50936;51.660;5.616;2023-01-28T07:31:34;102671.50;;;1.67;100.00
64544;BME280;50936;51.660;5.616;2023-01-28T07:34:01;102673.25;;;1.70;100.00
64544;BME280;50936;51.660;5.616;2023-01-28T07:36:28;102678.56;;;1.73;100.00
64544;BME280;50936;51.660;5.616;2023-01-28T07:38:55;102685.69;;;1.71;100.00
64544;BME280;50936;51.660;5.616;2023-01-28T07:41:22;102683.03;;;1.69;100.00
64544;BME280;50936;51.660;5.616;2023-01-28T07:43:49;102683.91;;;1.70;100.00
64544;BME280;50936;51.660;5.616;2023-01-28T07:46:16;102688.34;;;1.66;100.00
64544;BME280;50936;51.660;5.616;2023-01-28T07:48:43;102681.25;;;1.68;100.00
64544;BME280;50936;51.660;5.616;2023-01-28T07:51:11;102682.13;;;1.72;100.00
64544;BME280;50936;51.660;5.616;2023-01-28T07:53:38;102685.66;;;1.77;100.00
64544;BME280;50936;51.660;5.616;2023-01-28T07:56:05;102694.53;;;1.78;100.00
64544;BME280;50936;51.660;5.616;2023-01-28T07:58:32;102686.53;;;1.78;100.00
64544;BME280;50936;51.660;5.616;2023-01-28T08:01:01;102691.00;;;1.80;100.00
64544;BME280;50936;51.660;5.616;2023-01-28T08:03:28;102686.53;;;1.79;100.00
64544;BME280;50936;51.660;5.616;2023-01-28T08:05:55;102682.13;;;1.75;100.00
64544;BME280;50936;51.660;5.616;2023-01-28T08:08:24;102683.91;;;1.76;100.00
64544;BME280;50936;51.660;5.616;2023-01-28T08:10:52;102687.44;;;1.78;100.00
64544;BME280;50936;51.660;5.616;2023-01-28T08:13:20;102697.19;;;1.81;100.00
64544;BME280;50936;51.660;5.616;2023-01-28T08:15:46;102708.72;;;1.84;100.00
64544;BME280;50936;51.660;5.616;2023-01-28T08:18:15;102708.72;;;1.87;100.00
64544;BME280;50936;51.660;5.616;2023-01-28T08:20:42;102709.59;;;1.89;100.00
64544;BME280;50936;51.660;5.616;2023-01-28T08:23:18;102715.81;;;1.95;100.00
64544;BME280;50936;51.660;5.616;2023-01-28T08:25:48;102721.09;;;1.98;100.00
64544;BME280;50936;51.660;5.616;2023-01-28T08:28:15;102726.44;;;2.01;100.00
64544;BME280;50936;51.660;5.616;2023-01-28T08:30:43;102728.22;;;2.02;100.00
64544;BME280;50936;51.660;5.616;2023-01-28T08:33:12;102731.78;;;2.01;100.00
64544;BME280;50936;51.660;5.616;2023-01-28T08:35:40;102728.22;;;2.02;100.00
64544;BME280;50936;51.660;5.616;2023-01-28T08:38:09;102733.56;;;2.02;99.89
64544;BME280;50936;51.660;5.616;2023-01-28T08:40:38;102727.34;;;2.00;99.85
64544;BME280;50936;51.660;5.616;2023-01-28T08:43:05;102738.00;;;1.98;99.70
64544;BME280;50936;51.660;5.616;2023-01-28T08:45:32;102732.69;;;1.97;99.89
64544;BME280;50936;51.660;5.616;2023-01-28T08:48:07;102738.00;;;1.97;99.92
64544;BME280;50936;51.660;5.616;2023-01-28T08:50:38;102735.34;;;1.97;99.59
64544;BME280;50936;51.660;5.616;2023-01-28T08:53:16;102738.88;;;1.99;100.00
64544;BME280;50936;51.660;5.616;2023-01-28T08:55:45;102744.19;;;2.05;100.00
64544;BME280;50936;51.660;5.616;2023-01-28T08:58:14;102745.94;;;2.12;100.00
64544;BME280;50936;51.660;5.616;2023-01-28T09:00:43;102736.16;;;2.16;100.00
64544;BME280;50936;51.660;5.616;2023-01-28T09:03:11;102737.03;;;2.19;99.31
64544;BME280;50936;51.660;5.616;2023-01-28T09:05:38;102734.41;;;2.11;99.79
64544;BME280;50936;51.660;5.616;2023-01-28T09:08:08;102759.31;;;2.09;99.93
64544;BME280;50936;51.660;5.616;2023-01-28T09:10:37;102759.31;;;2.04;98.86
64544;BME280;50936;51.660;5.616;2023-01-28T09:13:14;102755.75;;;1.99;99.44
64544;BME280;50936;51.660;5.616;2023-01-28T09:15:42;102759.34;;;1.97;100.00
64544;BME280;50936;51.660;5.616;2023-01-28T09:18:09;102772.66;;;2.00;100.00
64544;BME280;50936;51.660;5.616;2023-01-28T09:20:36;102768.22;;;2.00;100.00
64544;BME280;50936;51.660;5.616;2023-01-28T09:23:04;102767.31;;;1.97;100.00
64544;BME280;50936;51.660;5.616;2023-01-28T09:25:31;102767.31;;;1.97;100.00
64544;BME280;50936;51.660;5.616;2023-01-28T09:27:59;102773.50;;;2.03;100.00
64544;BME280;50936;51.660;5.616;2023-01-28T09:30:26;102757.50;;;2.03;99.97
64544;BME280;50936;51.660;5.616;2023-01-28T09:32:55;102758.44;;;1.95;100.00
64544;BME280;50936;51.660;5.616;2023-01-28T09:35:25;102774.44;;;1.91;100.00
64544;BME280;50936;51.660;5.616;2023-01-28T09:37:55;102785.09;;;1.95;100.00
64544;BME280;50936;51.660;5.616;2023-01-28T09:40:43;102783.31;;;1.93;100.00
64544;BME280;50936;51.660;5.616;2023-01-28T09:46:10;102777.09;;;1.96;100.00
64544;BME280;50936;51.660;5.616;2023-01-28T09:48:45;102788.63;;;2.03;100.00
64544;BME280;50936;51.660;5.616;2023-01-28T09:51:32;102788.63;;;2.07;100.00
64544;BME280;50936;51.660;5.616;2023-01-28T09:54:25;102788.59;;;2.12;100.00
64544;BME280;50936;51.660;5.616;2023-01-28T09:57:09;102788.63;;;2.09;100.00
64544;BME280;50936;51.660;5.616;2023-01-28T09:59:39;102799.28;;;2.06;100.00
64544;BME280;50936;51.660;5.616;2023-01-28T10:05:09;102793.06;;;2.01;100.00
64544;BME280;50936;51.660;5.616;2023-01-28T10:11:19;102811.69;;;2.07;100.00
64544;BME280;50936;51.660;5.616;2023-01-28T10:19:53;102808.19;;;1.99;100.00
64544;BME280;50936;51.660;5.616;2023-01-28T10:22:29;102815.31;;;2.00;100.00
64544;BME280;50936;51.660;5.616;2023-01-28T10:25:05;102809.94;;;2.03;100.00
64544;BME280;50936;51.660;5.616;2023-01-28T10:27:48;102810.81;;;2.08;99.98
64544;BME280;50936;51.660;5.616;2023-01-28T10:30:18;102804.63;;;2.06;99.44
64544;BME280;50936;51.660;5.616;2023-01-28T10:33:09;102808.16;;;2.05;99.33
64544;BME280;50936;51.660;5.616;2023-01-28T10:35:55;102801.91;;;2.12;99.50
64544;BME280;50936;51.660;5.616;2023-01-28T10:38:24;102801.91;;;2.17;99.75
64544;BME280;50936;51.660;5.616;2023-01-28T10:40:59;102800.13;;;2.17;98.39
64544;BME280;50936;51.660;5.616;2023-01-28T10:43:32;102802.78;;;2.14;98.30
64544;BME280;50936;51.660;5.616;2023-01-28T10:48:46;102788.59;;;2.15;99.70
64544;BME280;50936;51.660;5.616;2023-01-28T10:51:38;102801.00;;;2.19;99.54
64544;BME280;50936;51.660;5.616;2023-01-28T10:54:22;102809.00;;;2.21;98.83
64544;BME280;50936;51.660;5.616;2023-01-28T10:56:57;102800.13;;;2.22;99.24
64544;BME280;50936;51.660;5.616;2023-01-28T10:59:29;102791.22;;;2.21;99.05
64544;BME280;50936;51.660;5.616;2023-01-28T11:02:28;102797.47;;;2.20;99.72
64544;BME280;50936;51.660;5.616;2023-01-28T11:05:00;102797.44;;;2.23;100.00
64544;BME280;50936;51.660;5.616;2023-01-28T11:07:33;102786.78;;;2.29;100.00
64544;BME280;50936;51.660;5.616;2023-01-28T11:10:00;102784.94;;;2.38;100.00
64544;BME280;50936;51.660;5.616;2023-01-28T11:12:29;102779.56;;;2.47;100.00
64544;BME280;50936;51.660;5.616;2023-01-28T11:15:02;102771.50;;;2.59;100.00
64544;BME280;50936;51.660;5.616;2023-01-28T11:17:34;102770.56;;;2.69;100.00
64544;BME280;50936;51.660;5.616;2023-01-28T11:20:18;102759.84;;;2.76;97.82
64544;BME280;50936;51.660;5.616;2023-01-28T11:22:48;102758.09;;;2.72;95.06
64544;BME280;50936;51.660;5.616;2023-01-28T11:25:36;102751.91;;;2.66;95.09
64544;BME280;50936;51.660;5.616;2023-01-28T11:28:16;102750.09;;;2.72;95.30
64544;BME280;50936;51.660;5.616;2023-01-28T11:30:51;102748.31;;;2.74;95.28
64544;BME280;50936;51.660;5.616;2023-01-28T11:33:42;102749.19;;;2.79;96.27
64544;BME280;50936;51.660;5.616;2023-01-28T11:36:21;102750.03;;;2.82;94.28
64544;BME280;50936;51.660;5.616;2023-01-28T11:41:43;102739.38;;;2.75;92.33
64544;BME280;50936;51.660;5.616;2023-01-28T11:44:22;102722.50;;;2.71;93.07
64544;BME280;50936;51.660;5.616;2023-01-28T11:55:46;102683.09;;;3.12;92.65
64544;BME280;50936;51.660;5.616;2023-01-28T12:04:24;102659.66;;;3.37;88.98
64544;BME280;50936;51.660;5.616;2023-01-28T12:10:02;102661.28;;;3.55;89.99
64544;BME280;50936;51.660;5.616;2023-01-28T12:21:27;102671.28;;;4.10;85.84
64544;BME280;50936;51.660;5.616;2023-01-28T12:30:04;102689.03;;;4.78;85.23
64544;BME280;50936;51.660;5.616;2023-01-28T12:38:53;102699.16;;;5.15;83.58
64544;BME280;50936;51.660;5.616;2023-01-28T12:41:47;102704.84;;;5.48;83.34
64544;BME280;50936;51.660;5.616;2023-01-28T12:44:24;102703.22;;;5.84;82.31
64544;BME280;50936;51.660;5.616;2023-01-28T12:47:01;102697.97;;;6.25;78.91
64544;BME280;50936;51.660;5.616;2023-01-28T12:52:38;102698.53;;;6.78;75.12
64544;BME280;50936;51.660;5.616;2023-01-28T12:55:43;102691.84;;;6.59;75.15
64544;BME280;50936;51.660;5.616;2023-01-28T12:58:20;102682.69;;;6.28;73.79
64544;BME280;50936;51.660;5.616;2023-01-28T13:00:54;102698.44;;;6.03;74.04
64544;BME280;50936;51.660;5.616;2023-01-28T13:03:33;102689.94;;;5.78;73.73
64544;BME280;50936;51.660;5.616;2023-01-28T13:06:18;102698.59;;;5.46;75.42
64544;BME280;50936;51.660;5.616;2023-01-28T13:08:59;102696.25;;;5.27;75.94
64544;BME280;50936;51.660;5.616;2023-01-28T13:11:36;102692.03;;;5.14;78.13
64544;BME280;50936;51.660;5.616;2023-01-28T13:14:04;102688.34;;;5.21;78.82
64544;BME280;50936;51.660;5.616;2023-01-28T13:16:32;102680.31;;;5.19;77.10
64544;BME280;50936;51.660;5.616;2023-01-28T13:21:46;102680.78;;;4.93;78.01
64544;BME280;50936;51.660;5.616;2023-01-28T13:31:53;102668.41;;;4.27;82.50
64544;BME280;50936;51.660;5.616;2023-01-28T13:34:41;102663.81;;;4.35;84.22
64544;BME280;50936;51.660;5.616;2023-01-28T13:40:23;102660.00;;;4.53;82.52
64544;BME280;50936;51.660;5.616;2023-01-28T13:43:05;102648.50;;;4.45;82.32
64544;BME280;50936;51.660;5.616;2023-01-28T13:46:03;102634.25;;;4.43;83.71
64544;BME280;50936;51.660;5.616;2023-01-28T13:51:22;102624.22;;;4.57;84.47
64544;BME280;50936;51.660;5.616;2023-01-28T13:53:55;102615.31;;;4.58;82.61
64544;BME280;50936;51.660;5.616;2023-01-28T13:59:32;102591.59;;;4.88;80.54
64544;BME280;50936;51.660;5.616;2023-01-28T14:05:17;102598.25;;;5.15;79.07
64544;BME280;50936;51.660;5.616;2023-01-28T14:08:38;102601.47;;;5.34;78.61
64544;BME280;50936;51.660;5.616;2023-01-28T14:17:12;102621.00;;;6.27;76.07
64544;BME280;50936;51.660;5.616;2023-01-28T14:19:51;102638.97;;;6.61;76.62
64544;BME280;50936;51.660;5.616;2023-01-28T14:22:22;102642.75;;;6.89;74.36
64544;BME280;50936;51.660;5.616;2023-01-28T14:24:49;102654.56;;;6.82;72.44
64544;BME280;50936;51.660;5.616;2023-01-28T14:33:09;102633.44;;;6.31;72.34
64544;BME280;50936;51.660;5.616;2023-01-28T14:35:44;102641.94;;;6.09;74.00
64544;BME280;50936;51.660;5.616;2023-01-28T14:38:16;102643.25;;;5.90;75.18
64544;BME280;50936;51.660;5.616;2023-01-28T14:40:50;102656.94;;;5.76;76.15
64544;BME280;50936;51.660;5.616;2023-01-28T14:43:21;102658.94;;;5.65;76.87
64544;BME280;50936;51.660;5.616;2023-01-28T14:46:01;102663.66;;;5.52;77.46
64544;BME280;50936;51.660;5.616;2023-01-28T14:51:45;102650.22;;;5.04;78.15
64544;BME280;50936;51.660;5.616;2023-01-28T14:59:49;102642.56;;;4.24;80.55
64544;BME280;50936;51.660;5.616;2023-01-28T15:02:26;102649.94;;;4.07;81.36
64544;BME280;50936;51.660;5.616;2023-01-28T15:05:07;102644.63;;;4.04;82.47
64544;BME280;50936;51.660;5.616;2023-01-28T15:07:36;102629.44;;;4.08;82.76
64544;BME280;50936;51.660;5.616;2023-01-28T15:10:06;102631.09;;;4.16;82.88
64544;BME280;50936;51.660;5.616;2023-01-28T15:13:06;102630.13;;;4.23;84.28
64544;BME280;50936;51.660;5.616;2023-01-28T15:15:45;102638.97;;;4.29;83.61
64544;BME280;50936;51.660;5.616;2023-01-28T15:18:19;102636.91;;;4.46;82.23
64544;BME280;50936;51.660;5.616;2023-01-28T15:20:55;102646.75;;;4.44;82.42
64544;BME280;50936;51.660;5.616;2023-01-28T15:23:31;102654.75;;;4.47;82.64
64544;BME280;50936;51.660;5.616;2023-01-28T15:26:13;102653.00;;;4.43;83.02
64544;BME280;50936;51.660;5.616;2023-01-28T15:28:45;102650.38;;;4.40;82.63
64544;BME280;50936;51.660;5.616;2023-01-28T15:31:25;102662.16;;;4.27;82.54
64544;BME280;50936;51.660;5.616;2023-01-28T15:34:15;102662.38;;;4.11;82.42
64544;BME280;50936;51.660;5.616;2023-01-28T15:36:45;102681.34;;;3.91;83.07